Time;durP1;ratioP1;P1;durP2;ratioP2;P2;SDS_P1;SDS_P2;PMS_P1;PMS_P2;Temp;Humidity;BMP_temperature;BMP_pressure;BME280_temperature;BME280_humidity;BME280_pressure;Samples;Min_cycle;Max_cycle;Signal;HPM_P1;HPM_P2
2022/10/13 00:01:22;;;;;;;6.45;1.48;;;20.00;75.70;;;;;;5029610;28;20033;-60
2022/10/13 00:03:51;;;;;;;5.72;1.30;;;20.00;75.60;;;;;;5028732;28;20033;-60
2022/10/13 00:06:25;;;;;;;3.72;1.02;;;20.00;75.80;;;;;;5030008;28;20120;-60
2022/10/13 00:08:55;;;;;;;5.65;1.50;;;20.00;76.00;;;;;;5030305;28;20032;-60
2022/10/13 00:11:27;;;;;;;7.00;1.40;;;20.00;75.90;;;;;;5030124;28;20495;-60
2022/10/13 00:13:58;;;;;;;5.80;1.10;;;20.00;76.00;;;;;;5045456;28;20396;-59
2022/10/13 00:16:30;;;;;;;5.95;1.75;;;20.00;76.00;;;;;;5048752;28;20029;-60
2022/10/13 00:18:58;;;;;;;5.03;1.30;;;20.00;76.00;;;;;;5034072;28;20034;-60
2022/10/13 00:21:28;;;;;;;6.88;1.40;;;20.00;76.20;;;;;;5049254;28;20082;-60
2022/10/13 00:23:59;;;;;;;4.95;1.27;;;20.00;76.40;;;;;;5033886;28;20171;-60
2022/10/13 00:26:28;;;;;;;4.55;1.20;;;20.00;77.20;;;;;;5042697;28;20048;-60
2022/10/13 00:28:56;;;;;;;6.18;1.20;;;20.00;76.70;;;;;;5052334;28;20029;-60
2022/10/13 00:31:33;;;;;;;4.50;1.27;;;20.00;76.80;;;;;;5053242;28;20036;-58
2022/10/13 00:34:02;;;;;;;7.57;1.27;;;20.00;76.90;;;;;;5068985;28;20567;-60
2022/10/13 00:36:31;;;;;;;6.22;1.30;;;20.00;77.70;;;;;;5052333;28;20084;-59
2022/10/13 00:38:59;;;;;;;5.97;1.30;;;20.00;77.30;;;;;;5053807;28;20025;-60
2022/10/13 00:41:27;;;;;;;6.38;1.45;;;20.00;77.40;;;;;;5053478;28;20083;-60
2022/10/13 00:44:04;;;;;;;7.72;1.20;;;20.00;77.60;;;;;;5038523;28;20183;-60
2022/10/13 00:46:36;;;;;;;6.40;1.52;;;20.00;77.80;;;;;;5041978;28;20482;-60
2022/10/13 00:49:10;;;;;;;6.40;1.45;;;20.00;78.00;;;;;;5053640;28;20116;-60
2022/10/13 00:51:45;;;;;;;9.55;1.73;;;20.00;78.10;;;;;;5053528;28;20380;-60
2022/10/13 00:54:19;;;;;;;7.28;1.23;;;20.00;78.10;;;;;;5053494;28;20028;-60
2022/10/13 00:56:49;;;;;;;10.63;1.85;;;20.00;78.10;;;;;;5052750;28;20033;-60
2022/10/13 00:59:27;;;;;;;4.53;1.30;;;20.00;78.00;;;;;;5052973;28;20032;-60
2022/10/13 01:01:58;;;;;;;5.88;1.30;;;20.00;77.80;;;;;;5053216;28;20549;-60
2022/10/13 01:04:31;;;;;;;3.63;0.98;;;20.00;77.80;;;;;;5051824;28;20085;-60
2022/10/13 01:07:00;;;;;;;5.72;1.30;;;20.00;77.80;;;;;;5053443;28;20044;-59
2022/10/13 01:09:36;;;;;;;4.05;1.02;;;20.00;77.80;;;;;;5051678;28;20024;-59
2022/10/13 01:12:23;;;;;;;7.95;1.33;;;20.10;78.00;;;;;;5049518;28;20353;-59
2022/10/13 01:15:19;;;;;;;8.98;2.47;;;20.10;78.20;;;;;;5032498;28;20037;-59
2022/10/13 01:17:53;;;;;;;7.32;1.55;;;20.10;78.20;;;;;;5033685;28;20473;-59
2022/10/13 01:20:40;;;;;;;5.07;1.38;;;20.10;78.20;;;;;;5033020;28;20488;-59
2022/10/13 01:23:11;;;;;;;9.15;2.33;;;20.10;78.20;;;;;;5032924;28;20048;-58
2022/10/13 01:25:55;;;;;;;4.35;1.45;;;20.10;78.30;;;;;;5048034;28;20377;-59
2022/10/13 01:28:41;;;;;;;6.05;1.55;;;20.10;78.40;;;;;;5048779;28;20033;-59
2022/10/13 01:31:39;;;;;;;5.15;1.30;;;20.10;78.40;;;;;;5052219;28;20368;-59
2022/10/13 01:34:20;;;;;;;5.57;1.20;;;20.10;78.80;;;;;;5051280;28;20033;-59
2022/10/13 01:37:09;;;;;;;10.15;1.60;;;20.10;78.80;;;;;;5052962;28;20029;-61
2022/10/13 01:39:58;;;;;;;6.72;1.30;;;20.00;78.90;;;;;;5051358;28;20155;-60
2022/10/13 01:42:40;;;;;;;8.35;1.48;;;20.00;79.10;;;;;;5026326;28;20124;-60
2022/10/13 01:45:17;;;;;;;7.15;1.40;;;20.10;79.30;;;;;;5031967;28;20365;-60
2022/10/13 01:47:46;;;;;;;7.30;1.30;;;20.10;79.30;;;;;;5033295;28;20339;-59
2022/10/13 01:50:17;;;;;;;6.50;1.30;;;20.00;79.40;;;;;;5032504;28;20022;-59
2022/10/13 01:52:47;;;;;;;6.80;1.55;;;20.10;79.50;;;;;;5048458;28;20103;-60
2022/10/13 01:55:15;;;;;;;4.55;1.30;;;20.00;79.40;;;;;;5032885;28;20498;-60
2022/10/13 01:57:45;;;;;;;4.97;1.30;;;20.10;79.50;;;;;;5062823;28;20503;-59
2022/10/13 02:00:17;;;;;;;5.88;1.20;;;20.00;79.50;;;;;;5051762;28;20036;-59
2022/10/13 02:03:30;;;;;;;4.85;1.55;;;20.00;79.60;;;;;;5051331;28;20037;-60
2022/10/13 02:06:21;;;;;;;8.70;1.58;;;20.00;79.50;;;;;;5052184;28;20025;-60
2022/10/13 02:08:55;;;;;;;7.82;1.30;;;20.10;79.60;;;;;;5067456;28;20429;-60
2022/10/13 02:11:24;;;;;;;7.93;1.50;;;20.00;79.40;;;;;;5032882;28;20033;-60
2022/10/13 02:13:55;;;;;;;6.55;1.42;;;20.00;79.30;;;;;;5047580;28;20018;-60
2022/10/13 02:16:32;;;;;;;4.53;1.20;;;20.10;79.40;;;;;;5031613;28;20026;-60
2022/10/13 02:19:04;;;;;;;7.38;1.13;;;20.10;79.50;;;;;;5032199;28;20033;-60
2022/10/13 02:21:34;;;;;;;8.93;1.70;;;20.10;79.40;;;;;;5047180;28;20052;-60
2022/10/13 02:24:04;;;;;;;6.47;1.50;;;20.10;79.40;;;;;;5047451;28;20038;-60
2022/10/13 02:26:34;;;;;;;5.45;1.58;;;20.10;79.40;;;;;;5039617;28;20028;-60
2022/10/13 02:29:15;;;;;;;8.02;1.85;;;20.10;79.40;;;;;;5051432;28;20049;-60
2022/10/13 02:31:45;;;;;;;7.25;1.60;;;20.10;79.40;;;;;;5051777;28;20124;-60
2022/10/13 02:34:14;;;;;;;4.70;1.17;;;20.10;79.40;;;;;;5051737;28;20025;-60
2022/10/13 02:36:47;;;;;;;7.43;2.05;;;20.10;79.40;;;;;;5034890;28;20456;-59
2022/10/13 02:39:16;;;;;;;6.60;1.52;;;20.10;79.40;;;;;;5046196;28;20087;-59
2022/10/13 02:41:44;;;;;;;7.68;1.77;;;20.10;79.40;;;;;;5032982;28;20041;-59
2022/10/13 02:44:12;;;;;;;6.28;1.45;;;20.10;79.40;;;;;;5050884;28;20055;-60
2022/10/13 02:46:43;;;;;;;10.23;1.50;;;20.10;79.70;;;;;;5050167;28;20463;-60
2022/10/13 02:49:12;;;;;;;9.63;1.90;;;20.10;80.00;;;;;;5051449;28;20599;-59
2022/10/13 02:51:39;;;;;;;7.50;1.35;;;20.10;79.90;;;;;;5041555;28;20120;-60
2022/10/13 02:54:08;;;;;;;8.48;1.38;;;20.10;80.00;;;;;;5031381;28;20037;-60
2022/10/13 02:56:36;;;;;;;7.07;1.75;;;20.10;80.20;;;;;;5031412;28;20044;-60
2022/10/13 02:59:05;;;;;;;6.13;1.50;;;20.10;80.30;;;;;;5030761;28;20387;-61
2022/10/13 03:01:34;;;;;;;8.30;1.60;;;20.10;80.20;;;;;;5046442;28;20480;-59
2022/10/13 03:04:03;;;;;;;6.28;1.65;;;20.10;80.40;;;;;;5046319;28;20053;-60
2022/10/13 03:06:31;;;;;;;5.35;1.58;;;20.10;80.40;;;;;;5039721;28;20041;-60
2022/10/13 03:08:59;;;;;;;6.78;1.35;;;20.10;80.60;;;;;;5066422;28;20035;-60
2022/10/13 03:11:27;;;;;;;5.47;1.20;;;20.10;80.80;;;;;;5050962;28;20098;-60
2022/10/13 03:13:55;;;;;;;6.80;1.38;;;20.10;80.90;;;;;;5050991;28;20025;-60
2022/10/13 03:16:23;;;;;;;7.82;1.60;;;20.10;80.70;;;;;;5050186;28;20056;-60
2022/10/13 03:18:52;;;;;;;5.22;1.40;;;20.10;80.90;;;;;;5050861;28;20028;-60
2022/10/13 03:21:20;;;;;;;7.18;1.55;;;20.10;81.30;;;;;;5048244;28;20479;-60
2022/10/13 03:23:48;;;;;;;7.90;1.95;;;20.10;81.50;;;;;;5050372;28;20043;-60
2022/10/13 03:26:16;;;;;;;8.80;1.60;;;20.20;81.60;;;;;;5042113;28;20067;-59
2022/10/13 03:28:52;;;;;;;12.52;1.70;;;20.10;81.70;;;;;;5046496;28;20095;-60
2022/10/13 03:31:20;;;;;;;8.50;1.48;;;20.10;81.60;;;;;;5045608;28;20044;-60
2022/10/13 03:33:48;;;;;;;8.75;1.52;;;20.20;81.70;;;;;;5046405;28;20025;-60
2022/10/13 03:36:16;;;;;;;8.95;1.67;;;20.20;81.90;;;;;;5030966;28;20443;-60
2022/10/13 03:38:46;;;;;;;9.20;1.80;;;20.20;82.00;;;;;;5046229;28;20102;-59
2022/10/13 03:41:17;;;;;;;7.15;1.73;;;20.20;81.70;;;;;;5054764;28;20109;-60
2022/10/13 03:43:50;;;;;;;8.05;1.58;;;20.20;81.60;;;;;;5036419;28;20041;-60
2022/10/13 03:46:19;;;;;;;5.75;1.58;;;20.20;81.50;;;;;;5045708;28;20112;-60
2022/10/13 03:48:48;;;;;;;9.85;1.63;;;20.20;81.50;;;;;;5046108;28;20052;-60
2022/10/13 03:51:19;;;;;;;7.38;1.83;;;20.20;81.40;;;;;;5030434;28;20021;-59
2022/10/13 03:53:50;;;;;;;6.97;1.90;;;20.20;81.60;;;;;;5045827;28;20037;-60
2022/10/13 03:56:22;;;;;;;5.07;1.38;;;20.20;81.70;;;;;;5030675;28;20564;-59
2022/10/13 03:58:58;;;;;;;7.55;1.52;;;20.20;82.20;;;;;;5061772;28;20483;-60
2022/10/13 04:01:29;;;;;;;8.45;1.40;;;20.20;81.80;;;;;;5049953;28;20029;-60
2022/10/13 04:03:59;;;;;;;5.68;1.45;;;20.20;81.70;;;;;;5050195;28;20549;-61
2022/10/13 04:06:27;;;;;;;8.88;1.70;;;20.20;81.70;;;;;;5050082;28;20036;-61
2022/10/13 04:08:55;;;;;;;5.88;1.48;;;20.20;82.50;;;;;;5050253;28;20036;-59
2022/10/13 04:11:24;;;;;;;6.65;1.25;;;20.20;81.90;;;;;;5050115;28;20025;-60
2022/10/13 04:13:58;;;;;;;5.75;1.13;;;20.20;81.60;;;;;;5045895;28;20025;-60
2022/10/13 04:16:29;;;;;;;6.15;1.20;;;20.30;81.10;;;;;;5030036;28;20493;-60
2022/10/13 04:19:05;;;;;;;3.65;1.10;;;20.30;81.30;;;;;;5030393;28;20057;-60
2022/10/13 04:21:34;;;;;;;7.03;1.38;;;20.30;80.20;;;;;;5045433;28;20109;-60
2022/10/13 04:24:03;;;;;;;6.32;1.30;;;20.30;80.10;;;;;;5030153;28;20384;-60
2022/10/13 04:26:35;;;;;;;6.38;2.03;;;20.30;79.90;;;;;;5030134;28;20067;-59
2022/10/13 04:29:12;;;;;;;6.40;1.45;;;20.30;79.70;;;;;;5051400;28;20040;-59
2022/10/13 04:31:44;;;;;;;5.45;1.35;;;20.30;79.60;;;;;;5048850;28;20564;-59
2022/10/13 04:34:12;;;;;;;8.93;1.48;;;20.30;79.60;;;;;;5050072;28;20168;-60
2022/10/13 04:36:40;;;;;;;4.63;1.10;;;20.30;79.50;;;;;;5050154;28;20028;-60
2022/10/13 04:39:09;;;;;;;5.60;1.15;;;20.30;79.60;;;;;;5049990;28;20782;-59
2022/10/13 04:41:37;;;;;;;6.65;1.45;;;20.30;79.30;;;;;;5050191;28;20048;-59
2022/10/13 04:44:05;;;;;;;6.07;1.33;;;20.30;79.10;;;;;;5039619;28;20181;-60
2022/10/13 04:46:33;;;;;;;6.78;1.23;;;20.30;79.10;;;;;;5045284;28;20033;-60
2022/10/13 04:49:02;;;;;;;5.78;1.40;;;20.30;79.20;;;;;;5045197;28;20029;-60
2022/10/13 04:51:32;;;;;;;3.85;1.13;;;20.30;79.20;;;;;;5028554;28;20025;-60
2022/10/13 04:54:01;;;;;;;8.38;1.52;;;20.30;79.20;;;;;;5030446;28;20026;-61
2022/10/13 04:56:29;;;;;;;8.55;1.50;;;20.30;79.20;;;;;;5048599;28;20051;-61
2022/10/13 04:59:04;;;;;;;8.90;1.58;;;20.30;79.30;;;;;;5047560;28;20031;-60
2022/10/13 05:01:34;;;;;;;7.30;1.55;;;20.30;79.50;;;;;;5048881;28;20052;-60
2022/10/13 05:04:06;;;;;;;8.18;1.60;;;20.30;79.50;;;;;;5068202;28;20178;-60
2022/10/13 05:06:39;;;;;;;6.50;1.50;;;20.30;79.60;;;;;;5053640;28;20115;-60
2022/10/13 05:09:08;;;;;;;8.35;1.70;;;20.30;79.70;;;;;;5053356;28;20100;-60
2022/10/13 05:11:36;;;;;;;7.72;1.90;;;20.30;79.90;;;;;;5053400;28;20025;-59
2022/10/13 05:14:05;;;;;;;8.25;1.50;;;20.30;80.10;;;;;;5040025;28;20026;-60
2022/10/13 05:16:33;;;;;;;8.95;2.10;;;20.30;80.00;;;;;;5033215;28;20029;-60
2022/10/13 05:19:01;;;;;;;7.95;1.90;;;20.40;80.20;;;;;;5033054;28;20017;-60
2022/10/13 05:21:29;;;;;;;5.95;1.60;;;20.40;80.20;;;;;;5033201;28;20413;-59
2022/10/13 05:23:58;;;;;;;6.82;1.42;;;20.40;80.40;;;;;;5032912;28;20045;-60
2022/10/13 05:26:30;;;;;;;9.18;1.60;;;20.40;80.40;;;;;;5048409;28;20017;-59
2022/10/13 05:29:01;;;;;;;13.40;2.40;;;20.40;80.50;;;;;;5047973;28;20033;-60
2022/10/13 05:31:33;;;;;;;10.40;2.03;;;20.40;80.50;;;;;;5040458;28;20460;-61
2022/10/13 05:34:02;;;;;;;9.32;1.80;;;20.40;80.50;;;;;;5068042;28;20104;-60
2022/10/13 05:36:33;;;;;;;12.23;1.95;;;20.40;80.60;;;;;;5052791;28;20411;-60
2022/10/13 05:39:03;;;;;;;9.90;1.85;;;20.40;80.70;;;;;;5068090;28;20036;-59
2022/10/13 05:41:32;;;;;;;6.00;1.50;;;20.40;80.70;;;;;;5051225;28;20132;-59
2022/10/13 05:44:07;;;;;;;10.57;2.33;;;20.40;80.80;;;;;;5052403;28;20079;-60
2022/10/13 05:46:43;;;;;;;8.13;2.70;;;20.40;80.90;;;;;;5041150;28;20041;-60
2022/10/13 05:49:11;;;;;;;10.73;1.95;;;20.40;80.80;;;;;;5032617;28;20445;-60
2022/10/13 05:51:46;;;;;;;8.10;2.00;;;20.40;80.80;;;;;;5048048;28;20037;-60
2022/10/13 05:54:21;;;;;;;11.82;1.70;;;20.40;81.00;;;;;;5032848;28;20104;-60
2022/10/13 05:57:12;;;;;;;9.15;1.85;;;20.40;81.10;;;;;;5047982;28;20079;-60
2022/10/13 05:59:46;;;;;;;8.73;1.45;;;20.40;81.10;;;;;;5047132;28;20060;-60
2022/10/13 06:02:17;;;;;;;10.50;1.73;;;20.40;81.40;;;;;;5065254;28;20087;-60
2022/10/13 06:04:48;;;;;;;12.23;1.90;;;20.40;81.60;;;;;;5051260;28;20025;-60
2022/10/13 06:07:17;;;;;;;9.98;1.88;;;20.40;81.90;;;;;;5068103;28;20025;-60
2022/10/13 06:09:45;;;;;;;6.88;1.67;;;20.40;82.00;;;;;;5051194;28;20029;-60
2022/10/13 06:12:13;;;;;;;8.40;1.77;;;20.40;82.10;;;;;;5050732;28;20033;-59
2022/10/13 06:14:41;;;;;;;7.78;2.25;;;20.40;82.30;;;;;;5051351;28;20028;-60
2022/10/13 06:17:12;;;;;;;7.80;1.60;;;20.50;82.60;;;;;;5032886;28;20433;-60
2022/10/13 06:19:44;;;;;;;9.13;2.20;;;20.50;83.20;;;;;;5032209;28;20040;-60
2022/10/13 06:22:12;;;;;;;17.67;3.30;;;20.50;83.80;;;;;;5047287;28;20566;-60
2022/10/13 06:24:40;;;;;;;13.07;2.63;;;20.50;84.50;;;;;;5031962;28;20025;-59
2022/10/13 06:27:10;;;;;;;13.27;2.42;;;20.50;84.70;;;;;;5046959;28;20037;-60
2022/10/13 06:29:38;;;;;;;11.32;2.70;;;20.50;84.80;;;;;;5046637;28;20103;-60
2022/10/13 06:32:07;;;;;;;14.05;2.40;;;20.50;84.90;;;;;;5030724;28;20022;-60
2022/10/13 06:34:34;;;;;;;12.80;2.47;;;20.50;85.20;;;;;;5039310;28;20021;-60
2022/10/13 06:37:03;;;;;;;10.55;2.40;;;20.50;85.60;;;;;;5050603;28;20052;-60
2022/10/13 06:39:31;;;;;;;8.98;2.08;;;20.50;85.90;;;;;;5050378;28;20089;-59
2022/10/13 06:42:03;;;;;;;13.27;2.10;;;20.50;86.00;;;;;;5050422;28;20037;-58
2022/10/13 06:44:38;;;;;;;8.20;2.38;;;20.50;86.10;;;;;;5046950;28;20040;-61
2022/10/13 06:47:06;;;;;;;9.15;2.10;;;20.50;86.50;;;;;;5046856;28;20173;-59
2022/10/13 06:49:34;;;;;;;7.93;2.38;;;20.50;86.60;;;;;;5031399;28;20354;-59
2022/10/13 06:52:04;;;;;;;9.15;2.35;;;20.50;86.60;;;;;;5046769;28;20104;-59
2022/10/13 06:54:32;;;;;;;14.60;2.70;;;20.50;86.70;;;;;;5046539;28;20043;-60
2022/10/13 06:57:01;;;;;;;14.13;2.63;;;20.50;87.00;;;;;;5031482;28;20026;-60
2022/10/13 06:59:29;;;;;;;9.25;2.42;;;20.50;87.10;;;;;;5048698;28;20434;-60
2022/10/13 07:01:57;;;;;;;13.57;2.28;;;20.50;87.10;;;;;;5066521;28;20024;-60
2022/10/13 07:04:27;;;;;;;13.52;2.10;;;20.50;87.30;;;;;;5050958;28;20075;-60
2022/10/13 07:06:58;;;;;;;9.95;1.77;;;20.50;87.30;;;;;;5051125;28;20025;-59
2022/10/13 07:09:27;;;;;;;10.82;2.25;;;20.50;87.40;;;;;;5051091;28;20028;-60
2022/10/13 07:11:55;;;;;;;8.63;2.00;;;20.40;87.50;;;;;;5050961;28;20013;-60
2022/10/13 07:14:23;;;;;;;11.18;1.90;;;20.40;87.80;;;;;;5064808;28;20032;-60
2022/10/13 07:16:51;;;;;;;8.20;2.10;;;20.40;87.90;;;;;;5050912;28;20124;-60
2022/10/13 07:19:20;;;;;;;10.52;2.42;;;20.40;88.00;;;;;;5050796;28;20017;-60
2022/10/13 07:21:48;;;;;;;10.23;2.20;;;20.40;88.00;;;;;;5051316;28;20021;-60
2022/10/13 07:24:16;;;;;;;10.43;2.53;;;20.50;88.00;;;;;;5050320;28;20052;-60
2022/10/13 07:26:44;;;;;;;11.48;2.60;;;20.50;88.10;;;;;;5051180;28;20018;-60
2022/10/13 07:29:13;;;;;;;14.82;1.80;;;20.40;88.00;;;;;;5044535;28;20052;-60
2022/10/13 07:31:43;;;;;;;13.73;2.78;;;20.40;88.10;;;;;;5030827;28;20020;-60
2022/10/13 07:34:11;;;;;;;10.88;2.15;;;20.40;88.20;;;;;;5030626;28;20041;-59
2022/10/13 07:36:40;;;;;;;11.40;2.10;;;20.40;88.30;;;;;;5030783;28;20017;-59
2022/10/13 07:39:09;;;;;;;8.02;2.13;;;20.40;88.40;;;;;;5030646;28;20095;-59
2022/10/13 07:41:37;;;;;;;13.00;2.33;;;20.40;88.40;;;;;;5029014;28;20049;-60
2022/10/13 07:44:06;;;;;;;11.10;2.40;;;20.40;88.50;;;;;;5029969;28;20037;-59
2022/10/13 07:46:37;;;;;;;11.70;2.67;;;20.40;88.50;;;;;;5036867;28;20061;-57
2022/10/13 07:49:06;;;;;;;10.75;1.90;;;20.40;88.50;;;;;;5071785;28;20028;-57
2022/10/13 07:51:34;;;;;;;14.20;2.45;;;20.40;88.40;;;;;;5059337;28;20071;-58
2022/10/13 07:54:02;;;;;;;11.60;1.90;;;20.40;88.40;;;;;;5048898;28;20067;-58
2022/10/13 07:56:31;;;;;;;8.75;2.40;;;20.40;88.40;;;;;;5048573;28;20045;-58
2022/10/13 07:59:04;;;;;;;16.63;3.20;;;20.40;88.40;;;;;;5042964;28;20017;-58
2022/10/13 08:01:32;;;;;;;11.80;2.10;;;20.40;88.50;;;;;;5036348;28;20543;-58
2022/10/13 08:04:00;;;;;;;12.85;2.47;;;20.40;88.50;;;;;;5085651;28;20032;-58
2022/10/13 08:06:29;;;;;;;12.57;2.83;;;20.40;88.50;;;;;;5078092;28;20021;-58
2022/10/13 08:08:59;;;;;;;9.98;2.53;;;20.30;88.60;;;;;;5050109;28;20044;-58
2022/10/13 08:11:27;;;;;;;10.90;1.98;;;20.30;88.70;;;;;;5048944;28;20028;-58
2022/10/13 08:13:59;;;;;;;16.27;2.55;;;20.30;88.70;;;;;;5030943;28;20021;-58
2022/10/13 08:16:29;;;;;;;13.25;2.40;;;20.30;88.80;;;;;;5033309;28;20013;-58
2022/10/13 08:18:59;;;;;;;16.77;2.75;;;20.30;89.00;;;;;;5063085;28;20031;-58
2022/10/13 08:21:29;;;;;;;11.70;2.42;;;20.30;89.10;;;;;;5070158;28;20024;-58
2022/10/13 08:23:57;;;;;;;9.15;2.38;;;20.30;89.20;;;;;;5065306;28;20033;-57
2022/10/13 08:26:27;;;;;;;11.02;2.35;;;20.30;89.40;;;;;;5058760;28;20022;-58
2022/10/13 08:28:56;;;;;;;12.50;2.33;;;20.30;89.40;;;;;;5045731;28;20021;-58
2022/10/13 08:31:24;;;;;;;13.80;2.78;;;20.30;89.50;;;;;;5046952;28;20021;-58
2022/10/13 08:33:52;;;;;;;10.75;2.30;;;20.40;89.70;;;;;;5046629;28;20029;-59
2022/10/13 08:36:20;;;;;;;8.95;2.08;;;20.40;89.80;;;;;;5066590;28;20029;-58
2022/10/13 08:38:49;;;;;;;11.55;2.35;;;20.40;89.90;;;;;;5053864;28;20368;-58
2022/10/13 08:41:25;;;;;;;13.15;2.10;;;20.40;90.00;;;;;;5048019;28;20025;-58
2022/10/13 08:44:09;;;;;;;10.23;2.67;;;20.40;90.00;;;;;;5068036;28;20136;-58
2022/10/13 08:46:50;;;;;;;15.50;2.60;;;20.30;90.10;;;;;;5049792;28;20025;-58
2022/10/13 08:49:18;;;;;;;15.27;2.60;;;20.40;90.30;;;;;;5039394;28;20033;-58
2022/10/13 08:51:46;;;;;;;12.02;1.88;;;20.40;90.30;;;;;;5071650;28;20063;-58
2022/10/13 08:54:17;;;;;;;11.32;2.30;;;20.40;90.40;;;;;;5059813;28;20063;-58
2022/10/13 08:56:49;;;;;;;17.05;2.83;;;20.30;90.50;;;;;;5053484;28;20041;-56
2022/10/13 08:59:20;;;;;;;12.48;2.50;;;20.30;90.60;;;;;;5045835;28;20057;-57
2022/10/13 09:01:53;;;;;;;11.93;2.08;;;20.30;90.70;;;;;;5047294;28;20068;-59
2022/10/13 09:04:38;;;;;;;10.77;2.13;;;20.40;90.90;;;;;;5045851;28;20124;-56
2022/10/13 09:07:09;;;;;;;16.10;3.10;;;20.40;90.90;;;;;;5049139;28;20016;-57
2022/10/13 09:09:38;;;;;;;14.03;2.50;;;20.40;91.00;;;;;;5049049;28;20055;-56
2022/10/13 09:12:06;;;;;;;10.63;2.60;;;20.40;91.10;;;;;;5051303;28;20258;-55
2022/10/13 09:14:38;;;;;;;13.45;2.88;;;20.40;91.20;;;;;;5051190;28;20021;-58
2022/10/13 09:17:27;;;;;;;11.85;2.95;;;20.40;91.40;;;;;;5040505;28;20023;-58
2022/10/13 09:20:03;;;;;;;13.77;2.92;;;20.40;91.60;;;;;;5049142;28;20021;-58
2022/10/13 09:22:39;;;;;;;13.25;2.50;;;20.40;91.50;;;;;;5043424;28;20507;-59
2022/10/13 09:25:20;;;;;;;15.95;2.67;;;20.40;91.60;;;;;;5041459;28;20056;-60
2022/10/13 09:28:00;;;;;;;15.30;2.78;;;20.40;91.50;;;;;;5036597;28;20026;-60
2022/10/13 09:30:41;;;;;;;14.20;2.85;;;20.40;91.50;;;;;;5047929;28;20026;-60
2022/10/13 09:33:12;;;;;;;14.15;2.67;;;20.40;91.50;;;;;;5043444;28;20026;-60
2022/10/13 09:35:47;;;;;;;13.38;2.55;;;20.40;91.40;;;;;;5048084;28;20032;-59
2022/10/13 09:38:21;;;;;;;16.85;2.78;;;20.40;91.50;;;;;;5060073;28;20474;-59
2022/10/13 09:41:06;;;;;;;14.73;2.58;;;20.40;91.50;;;;;;5051471;28;20070;-61
2022/10/13 09:43:44;;;;;;;11.88;2.20;;;20.50;91.30;;;;;;5049517;28;20065;-59
2022/10/13 09:46:47;;;;;;;11.68;2.50;;;20.40;91.20;;;;;;5033977;28;20029;-59
2022/10/13 09:49:38;;;;;;;14.40;2.10;;;20.40;91.10;;;;;;5046492;28;20032;-60
2022/10/13 09:52:17;;;;;;;13.98;2.35;;;20.40;91.00;;;;;;5040553;28;20021;-60
2022/10/13 09:54:55;;;;;;;13.60;2.63;;;20.40;91.00;;;;;;5038282;28;20053;-60
2022/10/13 09:57:45;;;;;;;12.20;2.53;;;20.40;90.90;;;;;;5050343;28;20030;-59
2022/10/13 10:00:26;;;;;;;13.90;2.75;;;20.40;90.80;;;;;;5058112;28;20087;-59
2022/10/13 10:03:02;;;;;;;14.95;2.30;;;20.40;90.80;;;;;;5045651;28;20041;-58
2022/10/13 10:05:50;;;;;;;10.30;2.00;;;20.40;90.80;;;;;;5046037;28;20097;-59
2022/10/13 10:08:46;;;;;;;11.48;2.00;;;20.40;90.80;;;;;;5047730;28;20044;-62
2022/10/13 10:11:37;;;;;;;13.30;2.33;;;20.40;90.80;;;;;;5031681;28;20026;-59
2022/10/13 10:14:27;;;;;;;10.82;2.30;;;20.40;90.80;;;;;;5033298;28;20024;-59
2022/10/13 10:17:22;;;;;;;10.18;2.10;;;20.30;90.80;;;;;;5033290;28;20040;-60
2022/10/13 10:20:20;;;;;;;6.43;1.90;;;20.30;90.90;;;;;;5033672;28;20541;-60
2022/10/13 10:23:07;;;;;;;14.20;2.20;;;20.40;91.00;;;;;;4978887;28;20124;-63
2022/10/13 10:25:44;;;;;;;13.95;2.53;;;20.30;90.90;;;;;;5033839;28;20049;-59
2022/10/13 10:28:32;;;;;;;13.38;2.38;;;20.40;91.00;;;;;;5055715;28;20033;-60
2022/10/13 10:31:35;;;;;;;13.45;2.38;;;20.40;91.00;;;;;;5045754;28;20072;-60
2022/10/13 10:34:36;;;;;;;11.63;2.40;;;20.40;91.10;;;;;;5060033;28;20033;-59
2022/10/13 10:37:16;;;;;;;11.30;2.55;;;20.40;91.10;;;;;;5041210;28;20017;-59
2022/10/13 10:40:17;;;;;;;13.70;2.55;;;20.40;91.20;;;;;;5036831;28;20029;-59
2022/10/13 10:42:48;;;;;;;12.80;2.58;;;20.40;91.20;;;;;;4995862;28;20103;-59
2022/10/13 10:45:32;;;;;;;13.73;2.37;;;20.40;91.20;;;;;;5054278;28;20056;-59
2022/10/13 10:48:10;;;;;;;10.85;2.55;;;20.40;91.20;;;;;;5048239;28;20271;-59
2022/10/13 10:50:40;;;;;;;15.20;2.75;;;20.40;91.20;;;;;;5034176;28;20033;-60
2022/10/13 10:53:14;;;;;;;16.65;2.50;;;20.40;91.20;;;;;;5030788;28;20021;-60
2022/10/13 10:55:53;;;;;;;13.32;2.47;;;20.40;91.20;;;;;;5033113;28;20085;-59
2022/10/13 10:58:52;;;;;;;14.27;2.97;;;20.40;91.30;;;;;;5040620;28;20079;-59
2022/10/13 11:01:41;;;;;;;13.00;2.42;;;20.40;91.30;;;;;;5029975;28;20017;-60
2022/10/13 11:04:48;;;;;;;14.68;2.50;;;20.40;91.40;;;;;;5041601;28;20063;-59
2022/10/13 11:07:23;;;;;;;15.88;2.53;;;20.40;91.40;;;;;;5050520;28;20017;-59
2022/10/13 11:09:56;;;;;;;17.58;3.28;;;20.40;91.40;;;;;;5063079;28;20484;-59
2022/10/13 11:12:44;;;;;;;11.38;2.67;;;20.40;91.40;;;;;;5038066;28;20049;-60
2022/10/13 11:15:26;;;;;;;13.27;2.38;;;20.40;91.50;;;;;;5042391;28;20029;-59
2022/10/13 11:17:54;;;;;;;14.87;2.60;;;20.30;91.60;;;;;;5049519;28;20529;-60
2022/10/13 11:20:25;;;;;;;13.00;2.75;;;20.40;91.60;;;;;;5049891;28;20271;-59
2022/10/13 11:22:59;;;;;;;14.32;2.22;;;20.30;91.60;;;;;;5050067;28;20128;-59
2022/10/13 11:25:56;;;;;;;9.82;1.98;;;20.40;91.60;;;;;;5048727;28;20112;-60
2022/10/13 11:28:26;;;;;;;13.07;2.28;;;20.40;91.70;;;;;;5049017;28;20033;-59
2022/10/13 11:31:17;;;;;;;14.88;2.30;;;20.40;91.70;;;;;;5033401;28;20040;-60
2022/10/13 11:33:46;;;;;;;14.13;2.97;;;20.40;91.70;;;;;;5016570;28;20121;-60
2022/10/13 11:36:38;;;;;;;15.93;3.05;;;20.40;91.70;;;;;;5030351;28;20119;-60
2022/10/13 11:39:58;;;;;;;11.57;2.80;;;20.40;91.70;;;;;;5042665;28;20043;-60
2022/10/13 11:42:35;;;;;;;15.35;2.60;;;20.40;91.70;;;;;;5029207;28;20519;-62
2022/10/13 11:45:16;;;;;;;12.63;2.40;;;20.40;91.80;;;;;;5036342;28;20040;-60
2022/10/13 11:48:09;;;;;;;12.38;2.78;;;20.40;91.80;;;;;;5064997;28;20028;-60
2022/10/13 11:50:37;;;;;;;15.88;2.40;;;20.40;91.80;;;;;;5032621;28;20091;-60
2022/10/13 11:53:17;;;;;;;13.40;3.20;;;20.40;91.80;;;;;;5045204;28;20028;-60
2022/10/13 11:56:02;;;;;;;17.17;2.53;;;20.40;91.70;;;;;;5058275;28;20119;-61
2022/10/13 11:58:32;;;;;;;10.82;2.42;;;20.40;91.70;;;;;;5061966;28;20539;-60
2022/10/13 12:01:11;;;;;;;19.67;2.83;;;20.40;91.80;;;;;;5032593;28;20088;-60
2022/10/13 12:03:43;;;;;;;18.35;2.85;;;20.40;91.80;;;;;;5057864;28;20045;-61
2022/10/13 12:06:35;;;;;;;19.00;2.72;;;20.40;91.80;;;;;;5043441;28;20356;-60
2022/10/13 12:09:21;;;;;;;13.23;2.92;;;20.40;91.80;;;;;;5032700;28;20494;-60
2022/10/13 12:11:58;;;;;;;16.10;3.03;;;20.40;91.80;;;;;;5044407;28;20141;-61
2022/10/13 12:14:39;;;;;;;14.10;2.75;;;20.40;91.80;;;;;;5044918;28;20087;-59
2022/10/13 12:17:25;;;;;;;12.82;2.45;;;20.40;91.90;;;;;;5052684;28;20029;-60
2022/10/13 12:19:56;;;;;;;15.60;2.92;;;20.30;91.80;;;;;;5057533;28;20120;-60
2022/10/13 12:22:27;;;;;;;15.20;3.30;;;20.40;91.70;;;;;;5033253;28;20480;-60
2022/10/13 12:25:06;;;;;;;10.77;3.00;;;20.30;91.70;;;;;;5048813;28;20044;-60
2022/10/13 12:27:51;;;;;;;16.13;2.78;;;20.30;91.60;;;;;;5041903;28;20475;-60
2022/10/13 12:30:28;;;;;;;18.45;3.08;;;20.30;91.80;;;;;;5034352;28;20033;-60
2022/10/13 12:32:59;;;;;;;13.63;2.58;;;20.40;91.50;;;;;;5060691;28;20017;-60
2022/10/13 12:35:33;;;;;;;14.88;2.67;;;20.30;91.50;;;;;;5040102;28;20021;-61
2022/10/13 12:38:06;;;;;;;15.57;2.97;;;20.30;91.40;;;;;;5033583;28;20048;-60
2022/10/13 12:40:35;;;;;;;14.52;2.70;;;20.40;91.40;;;;;;5062637;28;20018;-59
2022/10/13 12:43:05;;;;;;;13.90;2.63;;;20.40;91.40;;;;;;5044678;28;20053;-60
2022/10/13 12:45:35;;;;;;;8.65;2.35;;;20.40;91.30;;;;;;5048726;28;20029;-60
2022/10/13 12:48:03;;;;;;;11.15;2.53;;;20.40;91.30;;;;;;5032727;28;20089;-60
2022/10/13 12:50:36;;;;;;;12.13;2.63;;;20.40;91.20;;;;;;5048448;28;20060;-61
2022/10/13 12:53:08;;;;;;;14.73;2.83;;;20.40;91.10;;;;;;5051545;28;20464;-60
2022/10/13 12:55:57;;;;;;;16.50;3.40;;;20.40;91.10;;;;;;5040091;28;20025;-61
2022/10/13 12:58:29;;;;;;;13.88;3.00;;;20.40;91.00;;;;;;5041322;28;20045;-61
2022/10/13 13:01:08;;;;;;;11.38;2.40;;;20.40;90.90;;;;;;5048015;28;20029;-61
2022/10/13 13:03:38;;;;;;;14.80;3.42;;;20.40;90.90;;;;;;5038007;28;20091;-61
2022/10/13 13:06:16;;;;;;;10.25;2.70;;;20.40;90.80;;;;;;5049402;28;20021;-60
2022/10/13 13:08:44;;;;;;;12.00;2.38;;;20.40;90.80;;;;;;5039883;28;20099;-60
2022/10/13 13:11:23;;;;;;;12.32;2.30;;;20.40;90.70;;;;;;5047824;28;20085;-60
2022/10/13 13:14:46;;;;;;;9.85;2.35;;;20.40;90.70;;;;;;5043837;28;20391;-60
2022/10/13 13:17:17;;;;;;;10.48;2.60;;;20.40;90.60;;;;;;5009392;28;20064;-61